Pagina principale
METAR-TAF:

METAR-TAF

Aeroporti :

Kenai, Alaska, Stati Uniti

latitudine: 60-34-23N, longitudine: 151-14-42W, altezza: 30 m

Osservazione

Il bollettino è stato emesso 1 ora e 2 minuti fa, alle 05:53 UTC
Vento 14 kt da sud con raffiche fino a 20 kt
Temperature 11°C
Umidità 71%
Pressione 1003 hPa
Visibilità: 16.1 km
Cielo sereno

METAR: PAEN 230553Z 17014G20KT 10SM CLR 11/06 A2963 RMK AO2 SLP035 T01060061 10133 20094 53008

Ora: 22:55 (06:55 UTC)

Previsione

Il bollettino è stato emesso 1 ora e 27 minuti fa, alle 05:28 UTC
Previsione valida dal 23 alle 06 UTC al 24 alle 06 UTC
Vento 15 kt da sud con raffiche fino a 22 kt
Visibilità: 10 km
Poco nuvoloso ad un'altezza di 5000 ft
A partire da 24 alle 0500 UTC
Vento 10 kt da sud/sud-ovest
Visibilità: 10 km
Nuvoloso ad un'altezza di 5000 ft

TAF: PAEN 230528Z 2306/2406 19015G22KT P6SM FEW050 FM240500 20010KT P6SM BKN050

Osservazioni e previsioni meteorologiche di più di 4000 aeroporti (messaggi METAR e TAF).

Le stazioni disponibili sono rappresentate dai dischi gialli e rossi sulla carta.

Puntare il mouse per vedere il nome della stazione.

Clicca sopra per visualizzare le osservazioni e previsioni meteorologiche.

Per cambiare la mappa : fare clic sui pulsanti verdi con una croce nera per ingrandire, il pulsante verde con un trattino per diminuire, o sulla freccia verde per le mappe adiacenti.


METAR-TAF: